sensor_id;sensor_type;location;lat;lon;timestamp;P1;durP1;ratioP1;P2;durP2;ratioP2
17832;SDS011;9041;49.718;21.798;2024-03-25T00:01:47;15.73;;;8.20;;
17832;SDS011;9041;49.718;21.798;2024-03-25T00:04:13;17.83;;;8.53;;
17832;SDS011;9041;49.718;21.798;2024-03-25T00:06:40;18.30;;;8.57;;
17832;SDS011;9041;49.718;21.798;2024-03-25T00:09:07;19.97;;;10.00;;
17832;SDS011;9041;49.718;21.798;2024-03-25T00:11:33;28.87;;;13.37;;
17832;SDS011;9041;49.718;21.798;2024-03-25T00:13:59;24.57;;;12.30;;
17832;SDS011;9041;49.718;21.798;2024-03-25T00:16:25;24.67;;;11.17;;
17832;SDS011;9041;49.718;21.798;2024-03-25T00:18:51;25.27;;;11.10;;
17832;SDS011;9041;49.718;21.798;2024-03-25T00:21:17;27.37;;;11.17;;
17832;SDS011;9041;49.718;21.798;2024-03-25T00:23:45;31.40;;;12.60;;
17832;SDS011;9041;49.718;21.798;2024-03-25T00:26:10;24.03;;;12.00;;
17832;SDS011;9041;49.718;21.798;2024-03-25T00:28:37;22.17;;;11.93;;
17832;SDS011;9041;49.718;21.798;2024-03-25T00:31:03;25.80;;;11.13;;
17832;SDS011;9041;49.718;21.798;2024-03-25T00:33:30;27.10;;;11.60;;
17832;SDS011;9041;49.718;21.798;2024-03-25T00:35:56;24.27;;;11.70;;
17832;SDS011;9041;49.718;21.798;2024-03-25T00:38:22;21.43;;;11.07;;
17832;SDS011;9041;49.718;21.798;2024-03-25T00:40:50;21.37;;;10.93;;
17832;SDS011;9041;49.718;21.798;2024-03-25T00:43:16;19.00;;;9.77;;
17832;SDS011;9041;49.718;21.798;2024-03-25T00:45:42;22.47;;;10.10;;
17832;SDS011;9041;49.718;21.798;2024-03-25T00:48:09;23.93;;;10.23;;
17832;SDS011;9041;49.718;21.798;2024-03-25T00:50:34;20.10;;;9.67;;
17832;SDS011;9041;49.718;21.798;2024-03-25T00:53:01;20.33;;;9.73;;
17832;SDS011;9041;49.718;21.798;2024-03-25T00:55:27;17.07;;;8.60;;
17832;SDS011;9041;49.718;21.798;2024-03-25T00:57:55;22.77;;;10.47;;
17832;SDS011;9041;49.718;21.798;2024-03-25T01:00:20;18.30;;;9.00;;
17832;SDS011;9041;49.718;21.798;2024-03-25T01:02:47;18.83;;;9.13;;
17832;SDS011;9041;49.718;21.798;2024-03-25T01:05:13;21.97;;;8.90;;
17832;SDS011;9041;49.718;21.798;2024-03-25T01:07:39;18.23;;;9.40;;
17832;SDS011;9041;49.718;21.798;2024-03-25T01:10:05;19.50;;;8.97;;
17832;SDS011;9041;49.718;21.798;2024-03-25T01:12:32;19.83;;;9.00;;
17832;SDS011;9041;49.718;21.798;2024-03-25T01:14:59;18.20;;;8.47;;
17832;SDS011;9041;49.718;21.798;2024-03-25T01:17:27;17.40;;;8.17;;
17832;SDS011;9041;49.718;21.798;2024-03-25T01:19:52;17.23;;;8.63;;
17832;SDS011;9041;49.718;21.798;2024-03-25T01:22:19;16.47;;;8.00;;
17832;SDS011;9041;49.718;21.798;2024-03-25T01:24:44;18.67;;;8.80;;
17832;SDS011;9041;49.718;21.798;2024-03-25T01:27:14;20.00;;;9.10;;
17832;SDS011;9041;49.718;21.798;2024-03-25T01:29:40;16.07;;;8.10;;
17832;SDS011;9041;49.718;21.798;2024-03-25T01:32:08;16.97;;;9.07;;
17832;SDS011;9041;49.718;21.798;2024-03-25T01:34:33;16.80;;;7.23;;
17832;SDS011;9041;49.718;21.798;2024-03-25T01:37:00;9.80;;;5.67;;
17832;SDS011;9041;49.718;21.798;2024-03-25T01:39:25;11.87;;;4.53;;
17832;SDS011;9041;49.718;21.798;2024-03-25T01:41:52;8.60;;;4.90;;
17832;SDS011;9041;49.718;21.798;2024-03-25T01:44:18;8.47;;;4.43;;
17832;SDS011;9041;49.718;21.798;2024-03-25T01:46:44;10.43;;;5.77;;
17832;SDS011;9041;49.718;21.798;2024-03-25T01:49:11;17.53;;;9.00;;
17832;SDS011;9041;49.718;21.798;2024-03-25T01:51:38;16.20;;;8.60;;
17832;SDS011;9041;49.718;21.798;2024-03-25T01:54:04;12.73;;;6.17;;
17832;SDS011;9041;49.718;21.798;2024-03-25T01:56:33;9.37;;;5.23;;
17832;SDS011;9041;49.718;21.798;2024-03-25T01:58:58;15.17;;;7.20;;
17832;SDS011;9041;49.718;21.798;2024-03-25T02:01:25;14.83;;;6.70;;
17832;SDS011;9041;49.718;21.798;2024-03-25T02:03:51;11.47;;;6.13;;
17832;SDS011;9041;49.718;21.798;2024-03-25T02:06:20;9.60;;;5.47;;
17832;SDS011;9041;49.718;21.798;2024-03-25T02:08:46;7.10;;;4.70;;
17832;SDS011;9041;49.718;21.798;2024-03-25T02:11:14;8.30;;;4.20;;
17832;SDS011;9041;49.718;21.798;2024-03-25T02:13:43;6.53;;;3.93;;
17832;SDS011;9041;49.718;21.798;2024-03-25T02:16:09;9.03;;;4.10;;
17832;SDS011;9041;49.718;21.798;2024-03-25T02:18:35;8.97;;;4.60;;
17832;SDS011;9041;49.718;21.798;2024-03-25T02:21:02;10.20;;;5.50;;
17832;SDS011;9041;49.718;21.798;2024-03-25T02:23:29;8.60;;;4.93;;
17832;SDS011;9041;49.718;21.798;2024-03-25T02:25:57;7.60;;;4.03;;
17832;SDS011;9041;49.718;21.798;2024-03-25T02:28:23;6.47;;;4.13;;
17832;SDS011;9041;49.718;21.798;2024-03-25T02:30:49;10.23;;;5.27;;
17832;SDS011;9041;49.718;21.798;2024-03-25T02:33:15;13.93;;;6.33;;
17832;SDS011;9041;49.718;21.798;2024-03-25T02:35:42;9.67;;;4.57;;
17832;SDS011;9041;49.718;21.798;2024-03-25T02:38:09;7.00;;;4.23;;
17832;SDS011;9041;49.718;21.798;2024-03-25T02:40:35;11.17;;;5.67;;
17832;SDS011;9041;49.718;21.798;2024-03-25T02:43:03;11.33;;;5.93;;
17832;SDS011;9041;49.718;21.798;2024-03-25T02:45:32;9.33;;;5.10;;
17832;SDS011;9041;49.718;21.798;2024-03-25T02:47:58;8.50;;;4.20;;
17832;SDS011;9041;49.718;21.798;2024-03-25T02:50:24;8.43;;;4.13;;
17832;SDS011;9041;49.718;21.798;2024-03-25T02:52:50;6.43;;;4.37;;
17832;SDS011;9041;49.718;21.798;2024-03-25T02:55:17;11.03;;;6.00;;
17832;SDS011;9041;49.718;21.798;2024-03-25T02:57:42;7.00;;;3.97;;
17832;SDS011;9041;49.718;21.798;2024-03-25T03:00:11;9.20;;;5.03;;
17832;SDS011;9041;49.718;21.798;2024-03-25T03:02:38;8.00;;;4.30;;
17832;SDS011;9041;49.718;21.798;2024-03-25T03:05:05;11.17;;;6.17;;
17832;SDS011;9041;49.718;21.798;2024-03-25T03:07:31;14.00;;;7.30;;
17832;SDS011;9041;49.718;21.798;2024-03-25T03:09:57;15.40;;;8.97;;
17832;SDS011;9041;49.718;21.798;2024-03-25T03:12:23;11.97;;;6.53;;
17832;SDS011;9041;49.718;21.798;2024-03-25T03:14:49;12.53;;;7.10;;
17832;SDS011;9041;49.718;21.798;2024-03-25T03:17:17;13.57;;;7.23;;
17832;SDS011;9041;49.718;21.798;2024-03-25T03:19:43;14.20;;;6.93;;
17832;SDS011;9041;49.718;21.798;2024-03-25T03:22:10;11.37;;;6.60;;
17832;SDS011;9041;49.718;21.798;2024-03-25T03:24:37;9.60;;;5.50;;
17832;SDS011;9041;49.718;21.798;2024-03-25T03:27:03;12.07;;;6.40;;
17832;SDS011;9041;49.718;21.798;2024-03-25T03:29:29;12.43;;;6.23;;
17832;SDS011;9041;49.718;21.798;2024-03-25T03:31:55;9.77;;;6.00;;
17832;SDS011;9041;49.718;21.798;2024-03-25T03:34:23;11.10;;;6.07;;
17832;SDS011;9041;49.718;21.798;2024-03-25T03:36:50;9.63;;;5.87;;
17832;SDS011;9041;49.718;21.798;2024-03-25T03:39:15;9.17;;;5.27;;
17832;SDS011;9041;49.718;21.798;2024-03-25T03:41:42;10.23;;;5.23;;
17832;SDS011;9041;49.718;21.798;2024-03-25T03:44:08;9.43;;;5.30;;
17832;SDS011;9041;49.718;21.798;2024-03-25T03:46:35;8.23;;;4.57;;
17832;SDS011;9041;49.718;21.798;2024-03-25T03:49:01;10.43;;;5.53;;
17832;SDS011;9041;49.718;21.798;2024-03-25T03:51:29;10.77;;;6.40;;
17832;SDS011;9041;49.718;21.798;2024-03-25T03:53:55;13.50;;;6.20;;
17832;SDS011;9041;49.718;21.798;2024-03-25T03:56:22;8.50;;;4.73;;
17832;SDS011;9041;49.718;21.798;2024-03-25T03:58:47;9.63;;;4.50;;
17832;SDS011;9041;49.718;21.798;2024-03-25T04:01:14;7.13;;;3.90;;
17832;SDS011;9041;49.718;21.798;2024-03-25T04:03:41;7.23;;;3.40;;
17832;SDS011;9041;49.718;21.798;2024-03-25T04:06:08;5.77;;;3.60;;
17832;SDS011;9041;49.718;21.798;2024-03-25T04:08:36;5.97;;;3.27;;
17832;SDS011;9041;49.718;21.798;2024-03-25T04:11:03;5.77;;;3.90;;
17832;SDS011;9041;49.718;21.798;2024-03-25T04:13:31;12.00;;;6.50;;
17832;SDS011;9041;49.718;21.798;2024-03-25T04:16:00;22.43;;;9.73;;
17832;SDS011;9041;49.718;21.798;2024-03-25T04:18:27;34.13;;;13.90;;
17832;SDS011;9041;49.718;21.798;2024-03-25T04:20:54;43.93;;;18.43;;
17832;SDS011;9041;49.718;21.798;2024-03-25T04:23:19;32.23;;;13.10;;
17832;SDS011;9041;49.718;21.798;2024-03-25T04:25:47;65.87;;;21.87;;
17832;SDS011;9041;49.718;21.798;2024-03-25T04:28:13;23.43;;;9.17;;
17832;SDS011;9041;49.718;21.798;2024-03-25T04:30:42;17.70;;;7.07;;
17832;SDS011;9041;49.718;21.798;2024-03-25T04:33:08;15.20;;;6.63;;
17832;SDS011;9041;49.718;21.798;2024-03-25T04:35:34;17.70;;;7.30;;
17832;SDS011;9041;49.718;21.798;2024-03-25T04:38:00;15.90;;;6.67;;
17832;SDS011;9041;49.718;21.798;2024-03-25T04:40:26;17.43;;;7.53;;
17832;SDS011;9041;49.718;21.798;2024-03-25T04:42:53;12.40;;;5.50;;
17832;SDS011;9041;49.718;21.798;2024-03-25T04:45:19;10.67;;;4.83;;
17832;SDS011;9041;49.718;21.798;2024-03-25T04:47:44;11.63;;;5.80;;
17832;SDS011;9041;49.718;21.798;2024-03-25T04:50:10;10.30;;;5.63;;
17832;SDS011;9041;49.718;21.798;2024-03-25T04:52:35;11.40;;;5.70;;
17832;SDS011;9041;49.718;21.798;2024-03-25T04:55:01;15.07;;;6.03;;
17832;SDS011;9041;49.718;21.798;2024-03-25T04:57:27;8.87;;;5.30;;
17832;SDS011;9041;49.718;21.798;2024-03-25T04:59:54;10.17;;;5.63;;
17832;SDS011;9041;49.718;21.798;2024-03-25T05:02:19;12.93;;;5.93;;
17832;SDS011;9041;49.718;21.798;2024-03-25T05:04:45;11.70;;;6.97;;
17832;SDS011;9041;49.718;21.798;2024-03-25T05:07:11;16.17;;;8.10;;
17832;SDS011;9041;49.718;21.798;2024-03-25T05:09:36;14.80;;;8.10;;
17832;SDS011;9041;49.718;21.798;2024-03-25T05:12:02;22.43;;;9.87;;
17832;SDS011;9041;49.718;21.798;2024-03-25T05:14:28;20.13;;;10.77;;
17832;SDS011;9041;49.718;21.798;2024-03-25T05:16:55;25.30;;;11.80;;
17832;SDS011;9041;49.718;21.798;2024-03-25T05:19:21;23.03;;;11.33;;
17832;SDS011;9041;49.718;21.798;2024-03-25T05:21:46;19.13;;;9.73;;
17832;SDS011;9041;49.718;21.798;2024-03-25T05:24:12;17.57;;;8.50;;
17832;SDS011;9041;49.718;21.798;2024-03-25T05:26:41;26.30;;;11.97;;
17832;SDS011;9041;49.718;21.798;2024-03-25T05:29:06;17.07;;;8.90;;
17832;SDS011;9041;49.718;21.798;2024-03-25T05:31:32;17.73;;;8.10;;
17832;SDS011;9041;49.718;21.798;2024-03-25T05:33:59;22.73;;;9.23;;
17832;SDS011;9041;49.718;21.798;2024-03-25T05:36:25;18.80;;;8.97;;
17832;SDS011;9041;49.718;21.798;2024-03-25T05:38:51;17.43;;;8.37;;
17832;SDS011;9041;49.718;21.798;2024-03-25T05:41:16;16.87;;;8.47;;
17832;SDS011;9041;49.718;21.798;2024-03-25T05:43:42;18.37;;;8.23;;
17832;SDS011;9041;49.718;21.798;2024-03-25T05:46:08;15.80;;;7.80;;
17832;SDS011;9041;49.718;21.798;2024-03-25T05:48:33;19.70;;;7.53;;
17832;SDS011;9041;49.718;21.798;2024-03-25T05:51:01;19.30;;;8.00;;
17832;SDS011;9041;49.718;21.798;2024-03-25T05:53:27;15.93;;;8.00;;
17832;SDS011;9041;49.718;21.798;2024-03-25T05:55:53;12.43;;;6.13;;
17832;SDS011;9041;49.718;21.798;2024-03-25T05:58:19;9.50;;;4.97;;
17832;SDS011;9041;49.718;21.798;2024-03-25T06:00:46;11.60;;;4.93;;
17832;SDS011;9041;49.718;21.798;2024-03-25T06:03:12;8.13;;;4.43;;
17832;SDS011;9041;49.718;21.798;2024-03-25T06:05:38;10.10;;;4.30;;
17832;SDS011;9041;49.718;21.798;2024-03-25T06:08:05;7.47;;;4.20;;
17832;SDS011;9041;49.718;21.798;2024-03-25T06:10:34;6.90;;;4.30;;
17832;SDS011;9041;49.718;21.798;2024-03-25T06:13:01;6.63;;;3.93;;
17832;SDS011;9041;49.718;21.798;2024-03-25T06:15:26;7.33;;;3.77;;
17832;SDS011;9041;49.718;21.798;2024-03-25T06:17:52;7.23;;;3.80;;
17832;SDS011;9041;49.718;21.798;2024-03-25T06:20:17;7.00;;;3.70;;
17832;SDS011;9041;49.718;21.798;2024-03-25T06:22:43;8.37;;;4.60;;
17832;SDS011;9041;49.718;21.798;2024-03-25T06:25:10;8.17;;;4.53;;
17832;SDS011;9041;49.718;21.798;2024-03-25T06:27:35;8.27;;;4.23;;
17832;SDS011;9041;49.718;21.798;2024-03-25T06:30:01;6.80;;;3.90;;
17832;SDS011;9041;49.718;21.798;2024-03-25T06:32:42;8.43;;;4.13;;
17832;SDS011;9041;49.718;21.798;2024-03-25T06:35:26;7.70;;;4.03;;
17832;SDS011;9041;49.718;21.798;2024-03-25T06:37:52;6.30;;;3.77;;
17832;SDS011;9041;49.718;21.798;2024-03-25T06:40:19;8.27;;;3.90;;
17832;SDS011;9041;49.718;21.798;2024-03-25T06:42:45;7.27;;;3.77;;
17832;SDS011;9041;49.718;21.798;2024-03-25T06:45:10;6.00;;;3.80;;
17832;SDS011;9041;49.718;21.798;2024-03-25T06:47:36;7.33;;;3.87;;
17832;SDS011;9041;49.718;21.798;2024-03-25T06:50:01;7.83;;;4.37;;
17832;SDS011;9041;49.718;21.798;2024-03-25T06:52:28;7.17;;;3.53;;
17832;SDS011;9041;49.718;21.798;2024-03-25T06:54:53;7.13;;;4.50;;
17832;SDS011;9041;49.718;21.798;2024-03-25T06:57:20;7.60;;;4.30;;
17832;SDS011;9041;49.718;21.798;2024-03-25T06:59:46;6.97;;;3.80;;
17832;SDS011;9041;49.718;21.798;2024-03-25T07:02:11;6.80;;;3.87;;
17832;SDS011;9041;49.718;21.798;2024-03-25T07:04:37;6.83;;;3.60;;
17832;SDS011;9041;49.718;21.798;2024-03-25T07:07:06;6.27;;;3.67;;
17832;SDS011;9041;49.718;21.798;2024-03-25T07:09:31;7.70;;;3.97;;
17832;SDS011;9041;49.718;21.798;2024-03-25T07:11:57;7.00;;;3.93;;
17832;SDS011;9041;49.718;21.798;2024-03-25T07:14:24;6.03;;;3.10;;
17832;SDS011;9041;49.718;21.798;2024-03-25T07:16:50;5.23;;;3.10;;
17832;SDS011;9041;49.718;21.798;2024-03-25T07:19:15;8.73;;;3.47;;
17832;SDS011;9041;49.718;21.798;2024-03-25T07:21:41;6.20;;;3.63;;
17832;SDS011;9041;49.718;21.798;2024-03-25T07:24:07;7.53;;;3.60;;
17832;SDS011;9041;49.718;21.798;2024-03-25T07:26:32;5.50;;;2.90;;
17832;SDS011;9041;49.718;21.798;2024-03-25T07:28:58;5.53;;;2.90;;
17832;SDS011;9041;49.718;21.798;2024-03-25T07:31:25;5.30;;;2.93;;
17832;SDS011;9041;49.718;21.798;2024-03-25T07:33:51;5.43;;;2.87;;
17832;SDS011;9041;49.718;21.798;2024-03-25T07:36:16;5.10;;;3.03;;
17832;SDS011;9041;49.718;21.798;2024-03-25T07:38:42;6.47;;;2.80;;
17832;SDS011;9041;49.718;21.798;2024-03-25T07:41:07;6.97;;;2.80;;
17832;SDS011;9041;49.718;21.798;2024-03-25T07:43:34;5.60;;;2.83;;
17832;SDS011;9041;49.718;21.798;2024-03-25T07:45:59;6.10;;;2.43;;
17832;SDS011;9041;49.718;21.798;2024-03-25T07:48:26;4.63;;;2.50;;
17832;SDS011;9041;49.718;21.798;2024-03-25T07:50:54;4.73;;;2.73;;
17832;SDS011;9041;49.718;21.798;2024-03-25T07:53:19;5.23;;;2.60;;
17832;SDS011;9041;49.718;21.798;2024-03-25T07:55:45;5.13;;;2.47;;
17832;SDS011;9041;49.718;21.798;2024-03-25T07:58:11;5.67;;;2.90;;
17832;SDS011;9041;49.718;21.798;2024-03-25T08:00:36;4.50;;;2.67;;
17832;SDS011;9041;49.718;21.798;2024-03-25T08:03:02;6.15;;;2.85;;
17832;SDS011;9041;49.718;21.798;2024-03-25T08:05:30;4.50;;;2.40;;
17832;SDS011;9041;49.718;21.798;2024-03-25T08:07:55;6.38;;;3.13;;
17832;SDS011;9041;49.718;21.798;2024-03-25T08:10:21;4.93;;;3.20;;
17832;SDS011;9041;49.718;21.798;2024-03-25T08:12:47;6.07;;;3.05;;
17832;SDS011;9041;49.718;21.798;2024-03-25T08:15:12;5.45;;;3.03;;
17832;SDS011;9041;49.718;21.798;2024-03-25T08:17:39;6.40;;;3.10;;
17832;SDS011;9041;49.718;21.798;2024-03-25T08:20:05;6.07;;;3.13;;
17832;SDS011;9041;49.718;21.798;2024-03-25T08:22:32;6.28;;;3.20;;
17832;SDS011;9041;49.718;21.798;2024-03-25T08:24:58;5.47;;;3.03;;
17832;SDS011;9041;49.718;21.798;2024-03-25T08:27:23;4.60;;;2.75;;
17832;SDS011;9041;49.718;21.798;2024-03-25T08:29:49;7.47;;;2.90;;
17832;SDS011;9041;49.718;21.798;2024-03-25T08:32:15;6.57;;;3.17;;
17832;SDS011;9041;49.718;21.798;2024-03-25T08:34:40;6.40;;;3.00;;
17832;SDS011;9041;49.718;21.798;2024-03-25T08:37:06;7.43;;;3.30;;
17832;SDS011;9041;49.718;21.798;2024-03-25T08:39:33;8.60;;;3.03;;
17832;SDS011;9041;49.718;21.798;2024-03-25T08:41:59;6.13;;;3.13;;
17832;SDS011;9041;49.718;21.798;2024-03-25T08:44:25;6.57;;;2.47;;
17832;SDS011;9041;49.718;21.798;2024-03-25T08:46:50;5.45;;;2.63;;
17832;SDS011;9041;49.718;21.798;2024-03-25T08:49:16;2.65;;;2.13;;
17832;SDS011;9041;49.718;21.798;2024-03-25T08:51:42;3.65;;;2.10;;
17832;SDS011;9041;49.718;21.798;2024-03-25T08:54:08;5.85;;;2.67;;
17832;SDS011;9041;49.718;21.798;2024-03-25T08:56:35;3.35;;;2.28;;
17832;SDS011;9041;49.718;21.798;2024-03-25T08:59:00;5.22;;;2.00;;
17832;SDS011;9041;49.718;21.798;2024-03-25T09:01:26;6.45;;;2.03;;
17832;SDS011;9041;49.718;21.798;2024-03-25T09:03:51;3.17;;;1.85;;
17832;SDS011;9041;49.718;21.798;2024-03-25T09:06:17;4.10;;;1.98;;
17832;SDS011;9041;49.718;21.798;2024-03-25T09:08:43;3.22;;;1.80;;
17832;SDS011;9041;49.718;21.798;2024-03-25T09:11:23;4.82;;;2.00;;
17832;SDS011;9041;49.718;21.798;2024-03-25T09:13:50;5.57;;;2.30;;
17832;SDS011;9041;49.718;21.798;2024-03-25T09:16:16;4.18;;;2.17;;
17832;SDS011;9041;49.718;21.798;2024-03-25T09:18:42;2.50;;;1.95;;
17832;SDS011;9041;49.718;21.798;2024-03-25T09:21:07;7.25;;;2.58;;
17832;SDS011;9041;49.718;21.798;2024-03-25T09:23:33;6.20;;;2.42;;
17832;SDS011;9041;49.718;21.798;2024-03-25T09:25:59;5.18;;;2.35;;
17832;SDS011;9041;49.718;21.798;2024-03-25T09:28:24;3.17;;;2.05;;
17832;SDS011;9041;49.718;21.798;2024-03-25T09:30:51;4.15;;;1.70;;
17832;SDS011;9041;49.718;21.798;2024-03-25T09:33:17;6.97;;;1.95;;
17832;SDS011;9041;49.718;21.798;2024-03-25T09:35:43;2.65;;;2.03;;
17832;SDS011;9041;49.718;21.798;2024-03-25T09:38:08;4.10;;;2.08;;
17832;SDS011;9041;49.718;21.798;2024-03-25T09:40:35;4.78;;;2.55;;
17832;SDS011;9041;49.718;21.798;2024-03-25T09:43:01;3.42;;;2.10;;
17832;SDS011;9041;49.718;21.798;2024-03-25T09:45:28;6.10;;;2.30;;
17832;SDS011;9041;49.718;21.798;2024-03-25T09:47:56;4.68;;;2.30;;
17832;SDS011;9041;49.718;21.798;2024-03-25T09:50:22;2.97;;;2.00;;
17832;SDS011;9041;49.718;21.798;2024-03-25T09:52:47;5.85;;;2.08;;
17832;SDS011;9041;49.718;21.798;2024-03-25T09:55:13;3.63;;;1.83;;
17832;SDS011;9041;49.718;21.798;2024-03-25T09:57:39;4.47;;;2.00;;
17832;SDS011;9041;49.718;21.798;2024-03-25T10:00:06;4.32;;;1.90;;
17832;SDS011;9041;49.718;21.798;2024-03-25T10:02:33;1.67;;;1.45;;
17832;SDS011;9041;49.718;21.798;2024-03-25T10:05:01;7.10;;;1.60;;
17832;SDS011;9041;49.718;21.798;2024-03-25T10:07:26;5.25;;;2.10;;
17832;SDS011;9041;49.718;21.798;2024-03-25T10:09:52;2.63;;;1.40;;
17832;SDS011;9041;49.718;21.798;2024-03-25T10:12:19;4.18;;;1.35;;
17832;SDS011;9041;49.718;21.798;2024-03-25T10:14:44;1.95;;;1.08;;
17832;SDS011;9041;49.718;21.798;2024-03-25T10:17:10;2.53;;;1.13;;
17832;SDS011;9041;49.718;21.798;2024-03-25T10:19:36;1.17;;;1.08;;
17832;SDS011;9041;49.718;21.798;2024-03-25T10:22:04;2.30;;;1.33;;
17832;SDS011;9041;49.718;21.798;2024-03-25T10:24:37;2.55;;;1.10;;
17832;SDS011;9041;49.718;21.798;2024-03-25T10:27:09;2.03;;;1.40;;
17832;SDS011;9041;49.718;21.798;2024-03-25T10:29:35;1.50;;;1.30;;
17832;SDS011;9041;49.718;21.798;2024-03-25T10:32:01;2.45;;;1.42;;
17832;SDS011;9041;49.718;21.798;2024-03-25T10:34:27;7.20;;;1.23;;
17832;SDS011;9041;49.718;21.798;2024-03-25T10:36:54;4.75;;;1.70;;
17832;SDS011;9041;49.718;21.798;2024-03-25T10:39:23;1.83;;;1.40;;
17832;SDS011;9041;49.718;21.798;2024-03-25T10:41:51;7.15;;;2.15;;
17832;SDS011;9041;49.718;21.798;2024-03-25T10:44:18;5.75;;;2.20;;
17832;SDS011;9041;49.718;21.798;2024-03-25T10:46:44;5.22;;;2.40;;
17832;SDS011;9041;49.718;21.798;2024-03-25T10:49:11;3.45;;;1.98;;
17832;SDS011;9041;49.718;21.798;2024-03-25T10:51:39;6.97;;;2.58;;
17832;SDS011;9041;49.718;21.798;2024-03-25T10:54:06;10.52;;;3.10;;
17832;SDS011;9041;49.718;21.798;2024-03-25T10:56:34;12.25;;;2.50;;
17832;SDS011;9041;49.718;21.798;2024-03-25T10:59:00;15.93;;;2.65;;
17832;SDS011;9041;49.718;21.798;2024-03-25T11:01:26;2.97;;;2.17;;
17832;SDS011;9041;49.718;21.798;2024-03-25T11:03:52;5.40;;;1.95;;
17832;SDS011;9041;49.718;21.798;2024-03-25T11:06:17;14.52;;;2.67;;
17832;SDS011;9041;49.718;21.798;2024-03-25T11:08:43;5.45;;;1.90;;
17832;SDS011;9041;49.718;21.798;2024-03-25T11:11:17;5.82;;;1.70;;
17832;SDS011;9041;49.718;21.798;2024-03-25T11:13:44;12.35;;;2.03;;
17832;SDS011;9041;49.718;21.798;2024-03-25T11:16:10;3.60;;;1.48;;
17832;SDS011;9041;49.718;21.798;2024-03-25T11:18:35;6.25;;;1.73;;
17832;SDS011;9041;49.718;21.798;2024-03-25T11:21:01;4.57;;;1.75;;
17832;SDS011;9041;49.718;21.798;2024-03-25T11:23:35;4.13;;;1.10;;
17832;SDS011;9041;49.718;21.798;2024-03-25T11:26:01;3.03;;;1.33;;
17832;SDS011;9041;49.718;21.798;2024-03-25T11:28:27;2.30;;;1.23;;
17832;SDS011;9041;49.718;21.798;2024-03-25T12:00:31;3.20;;;1.30;;
17832;SDS011;9041;49.718;21.798;2024-03-25T12:02:57;1.20;;;0.90;;
17832;SDS011;9041;49.718;21.798;2024-03-25T12:05:23;6.68;;;3.15;;
17832;SDS011;9041;49.718;21.798;2024-03-25T12:07:48;3.05;;;1.20;;
17832;SDS011;9041;49.718;21.798;2024-03-25T12:10:15;2.00;;;1.00;;
17832;SDS011;9041;49.718;21.798;2024-03-25T12:13:00;2.40;;;1.40;;
17832;SDS011;9041;49.718;21.798;2024-03-25T12:15:27;2.03;;;1.05;;
17832;SDS011;9041;49.718;21.798;2024-03-25T12:17:53;1.90;;;1.08;;
17832;SDS011;9041;49.718;21.798;2024-03-25T12:20:19;3.25;;;1.10;;
17832;SDS011;9041;49.718;21.798;2024-03-25T12:22:45;3.78;;;1.20;;
17832;SDS011;9041;49.718;21.798;2024-03-25T12:25:10;4.72;;;1.23;;
17832;SDS011;9041;49.718;21.798;2024-03-25T12:27:36;1.92;;;1.30;;
17832;SDS011;9041;49.718;21.798;2024-03-25T12:30:04;2.25;;;1.25;;
17832;SDS011;9041;49.718;21.798;2024-03-25T12:32:35;1.75;;;1.13;;
17832;SDS011;9041;49.718;21.798;2024-03-25T12:35:01;2.85;;;1.40;;
17832;SDS011;9041;49.718;21.798;2024-03-25T12:37:27;7.72;;;1.95;;
17832;SDS011;9041;49.718;21.798;2024-03-25T12:39:53;4.22;;;1.48;;
17832;SDS011;9041;49.718;21.798;2024-03-25T12:42:19;3.67;;;1.58;;
17832;SDS011;9041;49.718;21.798;2024-03-25T12:44:45;4.80;;;1.40;;
17832;SDS011;9041;49.718;21.798;2024-03-25T12:47:10;3.97;;;1.38;;
17832;SDS011;9041;49.718;21.798;2024-03-25T12:49:37;2.05;;;1.20;;
17832;SDS011;9041;49.718;21.798;2024-03-25T12:52:04;6.80;;;1.55;;
17832;SDS011;9041;49.718;21.798;2024-03-25T12:54:30;3.90;;;1.45;;
17832;SDS011;9041;49.718;21.798;2024-03-25T12:56:56;7.75;;;1.65;;
17832;SDS011;9041;49.718;21.798;2024-03-25T12:59:22;2.08;;;1.30;;
17832;SDS011;9041;49.718;21.798;2024-03-25T13:01:47;4.22;;;1.80;;
17832;SDS011;9041;49.718;21.798;2024-03-25T13:04:13;2.95;;;1.20;;
17832;SDS011;9041;49.718;21.798;2024-03-25T13:06:40;2.20;;;1.20;;
17832;SDS011;9041;49.718;21.798;2024-03-25T13:09:06;4.25;;;1.30;;
17832;SDS011;9041;49.718;21.798;2024-03-25T13:11:46;4.20;;;1.88;;
17832;SDS011;9041;49.718;21.798;2024-03-25T13:14:12;9.88;;;1.55;;
17832;SDS011;9041;49.718;21.798;2024-03-25T13:16:38;8.18;;;1.67;;
17832;SDS011;9041;49.718;21.798;2024-03-25T13:19:03;4.45;;;1.30;;
17832;SDS011;9041;49.718;21.798;2024-03-25T13:21:29;6.53;;;1.65;;
17832;SDS011;9041;49.718;21.798;2024-03-25T13:23:56;3.55;;;1.33;;
17832;SDS011;9041;49.718;21.798;2024-03-25T13:26:22;1.10;;;1.00;;
17832;SDS011;9041;49.718;21.798;2024-03-25T13:28:47;1.55;;;1.25;;
17832;SDS011;9041;49.718;21.798;2024-03-25T13:31:13;2.10;;;1.27;;
17832;SDS011;9041;49.718;21.798;2024-03-25T13:33:38;6.13;;;1.60;;
17832;SDS011;9041;49.718;21.798;2024-03-25T13:36:05;5.50;;;1.33;;
17832;SDS011;9041;49.718;21.798;2024-03-25T13:38:31;10.07;;;2.08;;
17832;SDS011;9041;49.718;21.798;2024-03-25T13:40:58;5.47;;;1.90;;
17832;SDS011;9041;49.718;21.798;2024-03-25T13:43:24;13.73;;;2.60;;
17832;SDS011;9041;49.718;21.798;2024-03-25T13:45:50;8.32;;;2.35;;
17832;SDS011;9041;49.718;21.798;2024-03-25T13:48:15;3.33;;;1.40;;
17832;SDS011;9041;49.718;21.798;2024-03-25T13:50:41;1.35;;;0.90;;
17832;SDS011;9041;49.718;21.798;2024-03-25T13:53:07;6.85;;;0.93;;
17832;SDS011;9041;49.718;21.798;2024-03-25T13:55:33;7.90;;;1.20;;
17832;SDS011;9041;49.718;21.798;2024-03-25T13:58:00;2.05;;;1.10;;
17832;SDS011;9041;49.718;21.798;2024-03-25T14:00:25;2.10;;;1.00;;
17832;SDS011;9041;49.718;21.798;2024-03-25T14:02:51;3.15;;;0.80;;
17832;SDS011;9041;49.718;21.798;2024-03-25T14:05:17;1.75;;;1.00;;
17832;SDS011;9041;49.718;21.798;2024-03-25T14:07:42;1.50;;;1.08;;
17832;SDS011;9041;49.718;21.798;2024-03-25T14:10:08;1.00;;;0.90;;
17832;SDS011;9041;49.718;21.798;2024-03-25T14:12:34;2.45;;;1.00;;
17832;SDS011;9041;49.718;21.798;2024-03-25T14:15:01;2.65;;;1.20;;
17832;SDS011;9041;49.718;21.798;2024-03-25T14:17:27;3.05;;;1.17;;
17832;SDS011;9041;49.718;21.798;2024-03-25T14:19:53;2.38;;;1.00;;
17832;SDS011;9041;49.718;21.798;2024-03-25T14:22:19;4.28;;;1.10;;
17832;SDS011;9041;49.718;21.798;2024-03-25T14:24:44;3.70;;;1.15;;
17832;SDS011;9041;49.718;21.798;2024-03-25T14:27:10;1.38;;;0.93;;
17832;SDS011;9041;49.718;21.798;2024-03-25T14:29:36;5.43;;;1.70;;
17832;SDS011;9041;49.718;21.798;2024-03-25T14:32:03;9.90;;;1.95;;
17832;SDS011;9041;49.718;21.798;2024-03-25T14:34:28;3.97;;;2.05;;
17832;SDS011;9041;49.718;21.798;2024-03-25T14:36:54;5.45;;;1.58;;
17832;SDS011;9041;49.718;21.798;2024-03-25T14:39:20;4.53;;;1.40;;
17832;SDS011;9041;49.718;21.798;2024-03-25T14:41:45;3.33;;;1.30;;
17832;SDS011;9041;49.718;21.798;2024-03-25T14:44:11;1.38;;;1.27;;
17832;SDS011;9041;49.718;21.798;2024-03-25T14:46:37;3.65;;;1.23;;
17832;SDS011;9041;49.718;21.798;2024-03-25T14:49:04;2.75;;;1.58;;
17832;SDS011;9041;49.718;21.798;2024-03-25T14:51:29;4.00;;;1.63;;
17832;SDS011;9041;49.718;21.798;2024-03-25T14:53:55;2.45;;;1.25;;
17832;SDS011;9041;49.718;21.798;2024-03-25T14:56:20;1.30;;;1.20;;
17832;SDS011;9041;49.718;21.798;2024-03-25T14:58:46;2.22;;;1.40;;
17832;SDS011;9041;49.718;21.798;2024-03-25T15:01:12;5.45;;;2.70;;
17832;SDS011;9041;49.718;21.798;2024-03-25T15:03:37;6.03;;;2.40;;
17832;SDS011;9041;49.718;21.798;2024-03-25T15:06:05;4.50;;;1.85;;
17832;SDS011;9041;49.718;21.798;2024-03-25T15:08:31;7.10;;;2.67;;